Latest Weather Observations for Port Macquarie Airport

IDN60801

Issued at 7:33 am EDT Sunday 1 March 2015 (issued every 30 minutes, with the page automatically refreshed every 10 minutes)

About weather observations | Map of weather stations | Latest weather observations for NSW | Other Formats
Station Details ID: 060139 Name: PORT MACQUARIE AIRPORT AWS Lat: -31.43 Lon: 152.87 Height: 4.2 m
Data from the previous 72 hours. | See also: Recent months at Port Macquarie Airport
Date/Time
EDT
Temp
°C
App
Temp
°C
Dew
Point
Rel
Hum
%
Delta-T
°C
Wind Press
QNH
hPa
Press
MSL
hPa
Rain
since 9 am
mm
Dir
 
Spd
km/h
Gust
km/h
Spd
kts
Gust
kts
01/07:30am 21.2 23.2 20.0 93 0.8 N 9 13 5 7 1008.7 1008.7 0.0
01/07:00am 20.8 22.3 19.8 94 0.6 N 11 15 6 8 1008.6 1008.6 0.0
01/06:30am 20.8 22.6 19.6 93 0.8 N 9 15 5 8 1008.3 1008.3 0.0
01/06:00am 20.9 22.8 19.7 93 0.8 NNW 9 13 5 7 1008.1 1008.1 0.0
01/05:30am 21.1 22.6 19.7 92 0.9 N 11 15 6 8 1007.7 1007.7 0.0
01/05:00am 21.5 22.4 20.0 91 1.0 N 15 20 8 11 1007.8 1007.8 0.0
01/04:30am 21.3 23.0 20.1 93 0.8 N 11 15 6 8 1007.9 1007.9 0.0
01/04:00am 21.3 23.9 20.1 93 0.8 N 6 11 3 6 1008.1 1008.1 0.0
01/03:30am 21.7 23.6 20.5 93 0.8 NNE 11 13 6 7 1008.4 1008.4 0.0
01/03:00am 21.8 23.8 20.8 94 0.7 N 11 15 6 8 1008.8 1008.8 0.0
01/02:30am 21.7 24.2 21.0 96 0.5 N 9 13 5 7 1008.9 1008.9 0.0
01/02:00am 21.6 24.4 20.9 96 0.5 N 7 7 4 4 1009.2 1009.2 0.0
01/01:30am 21.3 25.3 20.5 95 0.5 CALM 0 0 0 0 1009.6 1009.6 0.0
01/01:00am 21.1 24.9 20.1 94 0.6 CALM 0 0 0 0 1010.1 1010.1 0.0
01/12:30am 21.3 25.1 20.1 93 0.8 CALM 0 0 0 0 1010.4 1010.4 0.0
01/12:00am 21.7 25.5 20.2 91 1.0 CALM 0 0 0 0 1010.6 1010.6 0.0
 
Date/Time
EDT
Temp
°C
App
Temp
°C
Dew
Point
Rel
Hum
%
Delta-T
°C
Wind Press
QNH
hPa
Press
MSL
hPa
Rain
since 9 am
mm
Dir
 
Spd
km/h
Gust
km/h
Spd
kts
Gust
kts
28/11:30pm 22.3 25.5 20.6 90 1.1 N 4 6 2 3 1010.7 1010.7 0.0
28/11:00pm 22.4 25.3 20.7 90 1.1 N 6 7 3 4 1010.7 1010.7 0.0
28/10:30pm 23.0 25.4 20.9 88 1.4 N 9 11 5 6 1010.7 1010.7 0.0
28/10:00pm 23.5 25.6 21.0 86 1.6 N 11 13 6 7 1010.7 1010.7 0.0
28/09:30pm 23.6 25.3 20.9 85 1.8 NNE 13 15 7 8 1010.7 1010.7 0.0
28/09:00pm 23.8 26.6 20.9 84 1.9 NNE 7 9 4 5 1010.6 1010.6 0.0
28/08:30pm 24.2 26.4 21.1 83 2.0 N 11 13 6 7 1010.2 1010.2 0.0
28/08:00pm 24.6 26.0 21.1 81 2.3 N 15 19 8 10 1010.0 1010.0 0.0
28/07:30pm 25.1 25.8 21.2 79 2.6 NNE 19 24 10 13 1009.2 1009.2 0.0
28/07:00pm 25.5 26.1 21.4 78 2.7 NNE 20 28 11 15 1009.1 1009.1 0.0
28/06:30pm 26.0 26.6 21.4 76 3.1 NNE 20 26 11 14 1008.8 1008.8 0.0
28/06:00pm 26.1 26.9 21.7 77 2.9 NE 20 28 11 15 1008.6 1008.6 0.0
28/05:30pm 26.4 27.3 21.6 75 3.2 NE 19 28 10 15 1008.8 1008.8 0.0
28/05:00pm 26.7 26.6 21.5 73 3.5 NE 24 33 13 18 1008.6 1008.6 0.0
28/04:30pm 26.6 26.9 21.6 74 3.3 NE 22 32 12 17 1008.6 1008.6 0.0
28/04:00pm 26.6 26.7 21.8 75 3.2 NE 24 33 13 18 1008.7 1008.7 0.0
28/03:30pm 27.3 28.0 21.6 71 3.8 NE 20 30 11 16 1008.7 1008.7 0.0
28/03:00pm 27.7 28.1 21.7 70 4.0 NE 22 30 12 16 1008.9 1008.9 0.0
28/02:30pm 28.0 28.7 22.2 70 3.9 NE 22 32 12 17 1009.1 1009.1 0.0
28/02:00pm 27.2 27.3 21.2 69 4.0 NE 22 30 12 16 1009.5 1009.5 0.0
28/01:30pm 27.5 28.4 22.7 75 3.3 ENE 22 30 12 16 1009.6 1009.6 0.0
28/01:00pm 26.1 27.0 22.0 78 2.7 ENE 20 28 11 15 1010.1 1010.1 0.0
28/12:30pm 25.6 26.4 21.3 77 2.8 NE 19 24 10 13 1010.5 1010.5 0.0
28/12:00pm 26.0 27.3 21.7 77 2.9 ENE 17 24 9 13 1010.7 1010.7 0.0
28/11:30am 26.3 28.2 21.3 74 3.3 ENE 13 19 7 10 1010.9 1010.9 0.0
28/11:00am 26.0 28.0 20.8 73 3.4 ENE 11 15 6 8 1011.2 1011.2 0.0
28/10:30am 26.0 28.1 21.0 74 3.3 NNE 11 13 6 7 1011.3 1011.3 0.0
28/10:00am 23.9 25.8 19.8 78 2.6 NNE 9 11 5 6 1011.1 1011.1 0.0
28/09:30am 23.3 25.9 20.1 82 2.1 NE 6 11 3 6 1011.1 1011.1 0.0
28/09:00am 21.7 23.5 19.6 88 1.3 WNW 9 11 5 6 1011.3 1011.3 0.0
28/08:30am 20.6 22.7 19.3 92 0.8 WNW 7 9 4 5 1011.1 1011.1 0.0
28/08:00am 19.9 21.9 19.2 96 0.4 WNW 7 11 4 6 1011.1 1011.1 0.0
28/07:30am 19.3 22.6 19.0 98 0.2 CALM 0 0 0 0 1010.7 1010.7 0.0
28/07:29am 19.3 22.6 19.0 98 0.2 CALM 0 0 0 0 1010.7 1010.7 0.0
28/07:28am 19.2 22.4 18.9 98 0.2 CALM 0 0 0 0 1010.7 - 0.0
28/07:03am 18.6 20.3 18.1 97 0.3 NW 6 7 3 4 1010.6 1010.6 0.0
28/07:02am 18.6 20.3 18.1 97 0.3 NW 6 7 3 4 1010.6 - 0.0
28/07:00am 18.6 20.3 18.1 97 0.3 NW 6 7 3 4 1010.6 1010.6 0.0
28/06:57am 18.5 20.2 18.0 97 0.3 NW 6 7 3 4 1010.6 1010.6 0.0
28/06:30am 18.8 21.0 18.3 97 0.3 NNW 4 7 2 4 1010.2 1010.2 0.0
28/06:00am 18.8 21.7 18.3 97 0.3 CALM 0 0 0 0 1009.8 1009.8 0.0
28/05:38am 18.7 21.6 18.2 97 0.3 CALM 0 0 0 0 1009.5 1009.5 0.0
28/05:30am 18.9 21.9 18.4 97 0.3 CALM 0 0 0 0 1009.4 1009.4 0.0
28/05:27am 18.9 21.9 18.4 97 0.3 CALM 0 0 0 0 1009.4 1009.4 0.0
28/05:26am 18.9 21.9 18.4 97 0.3 CALM 0 0 0 0 1009.4 - 0.0
28/05:00am 18.7 21.5 18.0 96 0.4 CALM 0 0 0 0 1009.0 1009.0 0.0
28/04:49am 18.9 21.8 18.2 96 0.4 CALM 0 0 0 0 1009.0 1009.0 0.0
28/04:48am 18.8 21.7 18.1 96 0.4 CALM 0 0 0 0 1008.9 - 0.0
28/04:30am 18.8 21.7 18.1 96 0.4 CALM 0 0 0 0 1009.0 1009.0 0.0
28/04:09am 19.1 22.1 18.4 96 0.4 CALM 0 0 0 0 1009.1 1009.1 0.0
28/04:00am 18.9 21.8 18.2 96 0.4 CALM 0 0 0 0 1009.3 1009.3 0.0
28/03:42am 18.8 21.7 18.1 96 0.4 CALM 0 0 0 0 1009.4 1009.4 0.0
28/03:41am 18.8 21.7 18.1 96 0.4 CALM 0 0 0 0 1009.4 1009.4 0.0
28/03:30am 19.7 23.0 19.2 97 0.3 CALM 0 0 0 0 1009.5 1009.5 0.0
28/03:14am 19.8 22.7 19.1 96 0.4 NW 2 7 1 4 1009.6 1009.6 0.0
28/03:13am 19.7 22.6 19.0 96 0.4 NW 2 7 1 4 1009.6 - 0.0
28/03:00am 19.6 22.8 18.9 96 0.4 CALM 0 0 0 0 1009.8 1009.8 0.0
28/02:54am 19.5 22.6 18.7 95 0.5 CALM 0 0 0 0 1009.8 1009.8 0.0
28/02:30am 20.0 23.4 19.3 96 0.4 CALM 0 0 0 0 1009.9 1009.9 0.0
28/02:00am 20.2 23.3 19.4 95 0.5 NW 2 6 1 3 1010.3 1010.3 0.0
28/01:30am 20.1 23.5 19.3 95 0.5 CALM 0 6 0 3 1010.6 1010.6 0.0
28/01:00am 20.4 23.9 19.6 95 0.5 CALM 0 0 0 0 1011.0 1011.0 0.0
28/12:30am 20.5 24.1 19.7 95 0.5 CALM 0 0 0 0 1011.1 1011.1 0.0
28/12:00am 20.8 24.5 20.0 95 0.5 CALM 0 0 0 0 1011.1 1011.1 0.0
 
Date/Time
EDT
Temp
°C
App
Temp
°C
Dew
Point
Rel
Hum
%
Delta-T
°C
Wind Press
QNH
hPa
Press
MSL
hPa
Rain
since 9 am
mm
Dir
 
Spd
km/h
Gust
km/h
Spd
kts
Gust
kts
27/11:30pm 20.7 24.3 19.7 94 0.6 CALM 0 0 0 0 1011.2 1011.2 0.0
27/11:00pm 21.4 25.2 20.2 93 0.8 CALM 0 0 0 0 1011.1 1011.1 0.0
27/10:30pm 21.5 25.3 20.1 92 0.9 CALM 0 0 0 0 1011.0 1011.0 0.0
27/10:00pm 21.6 25.3 19.9 90 1.1 CALM 0 0 0 0 1011.1 1011.1 0.0
27/09:30pm 22.7 26.9 21.0 90 1.1 CALM 0 0 0 0 1010.8 1010.8 0.0
27/09:00pm 22.6 26.4 20.9 90 1.1 WNW 2 7 1 4 1010.5 1010.5 0.0
27/08:30pm 22.3 26.3 20.6 90 1.1 CALM 0 0 0 0 1010.1 1010.1 0.0
27/08:00pm 23.2 26.7 20.3 84 1.9 E 2 7 1 4 1009.6 1009.6 0.0
27/07:30pm 23.6 26.1 20.3 82 2.1 ESE 7 11 4 6 1009.5 1009.5 0.0
27/07:00pm 24.2 26.0 20.3 79 2.5 ESE 11 15 6 8 1009.2 1009.2 0.0
27/06:30pm 24.8 26.6 20.3 76 2.9 E 11 15 6 8 1009.0 1009.0 0.0
27/06:00pm 25.6 27.8 21.1 76 3.0 ESE 11 19 6 10 1008.7 1008.7 0.0
27/05:30pm 25.1 26.0 20.1 74 3.2 SE 15 20 8 11 1008.4 1008.4 0.0
27/05:00pm 25.3 26.2 20.1 73 3.4 SE 15 20 8 11 1008.3 1008.3 0.0
27/04:30pm 26.2 27.3 20.5 71 3.7 SSE 15 20 8 11 1008.1 1008.1 0.0
27/04:00pm 26.6 27.8 20.7 70 3.9 SE 15 20 8 11 1007.7 1007.7 0.0
27/03:30pm 26.6 27.5 20.0 67 4.3 SE 15 22 8 12 1007.8 1007.8 0.0
27/03:00pm 26.2 26.3 19.1 65 4.6 SSE 17 26 9 14 1008.2 1008.2 0.0
27/02:30pm 26.7 26.6 19.6 65 4.6 SSE 19 28 10 15 1008.5 1008.5 0.0
27/02:00pm 26.1 26.0 19.5 67 4.3 SE 19 22 10 12 1008.7 1008.7 0.0
27/01:30pm 26.2 26.7 20.1 69 4.0 SSE 17 24 9 13 1008.9 1008.9 0.0
27/01:00pm 26.2 27.6 20.3 70 3.9 E 13 20 7 11 1009.0 1009.0 0.0
27/12:30pm 26.9 28.5 20.7 69 4.1 SSE 13 17 7 9 1009.4 1009.4 0.0
27/12:00pm 25.9 26.8 19.3 67 4.2 S 13 17 7 9 1009.6 1009.6 0.0
27/11:30am 25.7 27.7 20.7 74 3.3 SE 11 17 6 9 1009.9 1009.9 0.0
27/11:00am 24.3 25.2 20.0 77 2.8 S 15 20 8 11 1010.3 1010.3 0.0
27/10:35am 24.7 25.6 20.8 79 2.6 SSW 17 22 9 12 1010.1 1010.1 0.0
27/10:34am 24.8 25.9 21.3 81 2.3 S 17 22 9 12 1010.1 - 0.0
27/10:30am 23.8 24.3 20.1 80 2.4 SSW 17 24 9 13 1010.1 1010.1 0.0
27/10:22am 23.8 24.5 20.5 82 2.1 SSW 17 24 9 13 1010.1 1010.1 0.0
27/10:21am 24.0 24.8 20.7 82 2.2 SSW 17 24 9 13 1010.0 - 0.0
27/10:20am 24.0 25.3 20.9 83 2.0 SW 15 22 8 12 1010.0 1010.0 0.0
27/10:19am 23.7 24.8 20.4 82 2.1 SW 15 22 8 12 1010.1 - 0.0
27/10:00am 23.3 24.2 20.8 86 1.6 SW 17 22 9 12 1010.0 1010.0 0.0
27/09:30am 22.8 23.3 20.1 85 1.7 SSW 17 24 9 13 1009.8 1009.8 0.0
27/09:24am 22.6 23.6 20.3 87 1.5 SSW 15 24 8 13 1009.7 1009.7 0.0
27/09:23am 22.6 23.7 20.5 88 1.4 SSW 15 19 8 10 1009.7 - 0.0
27/09:00am 21.5 22.8 20.1 92 0.9 SSW 13 17 7 9 1009.5 1009.5 5.0
27/08:30am 20.7 22.4 20.2 97 0.3 SW 11 13 6 7 1009.3 1009.3 5.0
27/08:00am 20.0 22.2 19.7 98 0.2 W 7 9 4 5 1009.0 1009.0 5.0
27/07:30am 19.7 22.4 19.4 98 0.2 WSW 4 6 2 3 1008.8 1008.8 5.0
27/07:00am 19.8 21.6 19.5 98 0.2 WSW 9 13 5 7 1008.2 1008.2 5.0
27/06:54am 19.7 21.4 19.4 98 0.2 W 9 15 5 8 1008.0 1008.0 5.0
27/06:53am 19.7 21.4 19.4 98 0.2 W 9 15 5 8 1008.0 - 5.0
27/06:42am 19.8 21.2 19.6 99 0.1 WSW 11 17 6 9 1007.9 1007.9 5.0
27/06:30am 20.0 21.2 19.8 99 0.1 W 13 17 7 9 1007.8 1007.8 5.0
27/06:00am 20.2 21.8 19.9 98 0.2 W 11 17 6 9 1007.7 1007.7 5.0
27/05:30am 20.4 22.5 20.1 98 0.2 WNW 9 11 5 6 1007.5 1007.5 5.0
27/05:00am 20.4 22.8 20.1 98 0.2 W 7 11 4 6 1007.3 1007.3 5.0
27/04:46am 20.4 23.0 20.1 98 0.2 WNW 6 7 3 4 1007.1 1007.1 5.0
27/04:45am 20.3 23.3 20.0 98 0.2 WNW 4 7 2 4 1007.1 - 5.0
27/04:30am 20.3 22.9 20.0 98 0.2 N 6 9 3 5 1006.8 1006.8 5.0
27/04:00am 20.3 23.5 19.8 97 0.3 W 2 6 1 3 1006.5 1006.5 4.8
27/03:30am 20.5 24.1 19.8 96 0.4 CALM 0 0 0 0 1006.7 1006.7 4.8
27/03:18am 20.5 24.2 20.0 97 0.3 CALM 0 0 0 0 1006.6 1006.6 4.8
27/03:13am 20.8 24.3 20.3 97 0.3 ENE 2 6 1 3 1006.7 1006.7 4.8
27/03:09am 21.1 24.3 20.6 97 0.3 ENE 4 7 2 4 1006.7 1006.7 4.8
27/03:08am 21.1 24.3 20.6 97 0.3 ENE 4 7 2 4 1006.7 - 4.8
27/03:00am 21.1 24.3 20.6 97 0.3 NE 4 7 2 4 1006.7 1006.7 4.8
27/02:58am 21.1 24.7 20.6 97 0.3 NE 2 7 1 4 1006.8 1006.8 4.8
27/02:52am 21.1 25.1 20.6 97 0.3 CALM 0 0 0 0 1006.9 1006.9 4.8
27/02:51am 21.1 25.1 20.6 97 0.3 CALM 0 0 0 0 1006.9 - 4.8
27/02:30am 21.0 25.0 20.5 97 0.3 CALM 0 0 0 0 1007.2 1007.2 4.8
27/02:00am 21.3 25.4 20.8 97 0.3 CALM 0 0 0 0 1007.7 1007.7 4.8
27/01:30am 21.3 25.3 20.6 96 0.5 CALM 0 0 0 0 1008.3 1008.3 4.8
27/01:00am 21.5 24.5 20.8 96 0.5 SW 6 7 3 4 1008.5 1008.5 4.8
27/12:30am 21.6 25.0 20.9 96 0.5 W 4 9 2 5 1008.6 1008.6 4.8
27/12:00am 21.9 25.1 21.2 96 0.5 NNW 6 7 3 4 1008.7 1008.7 4.8
 
Date/Time
EDT
Temp
°C
App
Temp
°C
Dew
Point
Rel
Hum
%
Delta-T
°C
Wind Press
QNH
hPa
Press
MSL
hPa
Rain
since 9 am
mm
Dir
 
Spd
km/h
Gust
km/h
Spd
kts
Gust
kts
26/11:30pm 21.9 25.2 21.4 97 0.3 N 6 6 3 3 1008.7 1008.7 4.6
26/11:00pm 21.8 26.1 21.1 96 0.5 CALM 0 0 0 0 1008.8 1008.8 4.6
26/10:30pm 21.9 25.1 21.2 96 0.5 ENE 6 7 3 4 1009.0 1009.0 4.6
26/10:00pm 21.7 25.1 21.0 96 0.5 SSE 4 7 2 4 1009.1 1009.1 4.6
26/09:30pm 21.8 25.6 21.0 95 0.5 WNW 2 7 1 4 1009.1 1009.1 4.6
26/09:00pm 22.0 24.6 21.2 95 0.5 SW 9 9 5 5 1008.4 1008.4 4.6
26/08:30pm 22.1 23.9 21.1 94 0.7 N 13 17 7 9 1007.6 1007.6 4.6
26/08:00pm 22.2 24.2 21.5 96 0.5 NNE 13 15 7 8 1007.6 1007.6 4.4
26/07:30pm 22.3 25.0 21.3 94 0.7 W 9 13 5 7 1008.7 1008.7 3.2
26/07:00pm 22.4 25.2 20.9 91 1.0 NNW 7 9 4 5 1007.9 1007.9 1.6
26/06:30pm 23.1 24.9 21.2 89 1.2 N 13 15 7 8 1007.5 1007.5 0.6
26/06:00pm 24.2 25.4 20.7 81 2.3 N 15 20 8 11 1007.4 1007.4 0.0
26/05:30pm 24.7 25.1 20.6 78 2.7 NNE 19 24 10 13 1007.2 1007.2 0.0
26/05:00pm 24.9 25.6 20.4 76 2.9 NNE 17 26 9 14 1007.0 1007.0 0.0
26/04:30pm 25.2 25.7 20.0 73 3.4 NE 17 24 9 13 1007.0 1007.0 0.0
26/04:00pm 25.6 25.6 20.2 72 3.5 NE 20 30 11 16 1007.2 1007.2 0.0
26/03:30pm 26.6 26.9 20.7 70 3.9 NE 20 26 11 14 1007.2 1007.2 0.0
26/03:00pm 26.6 27.1 21.1 72 3.6 NE 20 28 11 15 1007.4 1007.4 0.0
26/02:30pm 25.7 25.6 19.6 69 3.9 ENE 19 28 10 15 1007.8 1007.8 0.0
26/02:00pm 26.0 26.4 20.6 72 3.5 ENE 19 24 10 13 1008.1 1008.1 0.0
26/01:30pm 26.0 25.3 19.6 68 4.1 ENE 22 30 12 16 1008.3 1008.3 0.0
26/01:00pm 25.9 25.9 20.2 71 3.7 ENE 20 28 11 15 1008.7 1008.7 0.0
26/12:30pm 26.7 27.8 21.2 72 3.6 NE 17 22 9 12 1009.2 1009.2 0.0
26/12:00pm 26.3 27.8 20.6 71 3.7 E 13 17 7 9 1009.4 1009.4 0.0
26/11:30am 25.8 27.0 19.9 70 3.8 NE 13 20 7 11 1009.8 1009.8 0.0
26/11:00am 25.4 28.0 20.4 74 3.3 N 7 11 4 6 1009.9 1009.9 0.0
26/10:30am 24.7 27.0 19.8 74 3.2 NE 7 15 4 8 1010.1 1010.1 0.0
26/10:00am 23.9 26.2 19.8 78 2.6 N 7 11 4 6 1010.3 1010.3 0.0
26/09:30am 22.7 25.6 19.9 84 1.8 N 4 7 2 4 1010.1 1010.1 0.0
26/09:00am 22.1 24.9 20.9 93 0.8 NNW 7 9 4 5 1010.2 1010.2 0.0
26/08:46am 21.2 23.6 20.0 93 0.8 WNW 7 11 4 6 1010.2 1010.2 0.0
26/08:45am 21.2 23.6 20.0 93 0.8 WNW 7 11 4 6 1010.2 - 0.0
26/08:30am 20.9 23.5 20.1 95 0.5 NW 6 9 3 5 1010.2 1010.2 0.0
26/08:27am 21.0 23.7 20.2 95 0.5 NNW 6 7 3 4 1010.1 1010.1 0.0
26/08:26am 20.9 23.5 20.1 95 0.5 NNW 6 7 3 4 1010.1 - 0.0
26/08:00am 20.5 22.9 20.0 97 0.3 WNW 7 9 4 5 1010.1 1010.1 0.0

Other Formats:

Comma delimited format used in spreadsheet applications
http://www.bom.gov.au/fwo/IDN60801/IDN60801.94786.axf

JavaScript Object Notation format (JSON) in row-major order
http://www.bom.gov.au/fwo/IDN60801/IDN60801.94786.json